createdAt,value
2023-04-20T19:07:23.335Z,32.55
2023-04-20T19:12:28.040Z,19.17
2023-04-20T19:17:32.516Z,16.25
2023-04-20T19:22:38.339Z,14.02
2023-04-20T19:27:42.607Z,13.90
2023-04-20T19:32:47.101Z,13.90
2023-04-20T19:37:52.909Z,14.27
2023-04-20T19:42:58.341Z,14.27
2023-04-20T19:48:03.067Z,14.00
2023-04-20T19:53:09.095Z,22.90
2023-04-20T19:58:13.637Z,34.67
2023-04-20T20:03:17.961Z,43.00
2023-04-20T20:08:23.930Z,24.98
2023-04-20T20:13:28.172Z,32.58
2023-04-20T20:18:32.600Z,20.08
2023-04-20T20:23:38.618Z,22.98
2023-04-20T20:28:43.319Z,19.80
2023-04-20T20:33:47.444Z,14.75
2023-04-20T20:38:53.613Z,20.77
2023-04-20T20:43:58.251Z,17.45
2023-04-20T20:49:02.685Z,16.63
2023-04-20T20:54:08.331Z,16.67
2023-04-20T20:59:12.762Z,17.95
2023-04-20T21:04:17.133Z,15.18
2023-04-20T21:09:23.065Z,13.77
2023-04-20T21:14:27.538Z,16.98
2023-04-20T21:19:31.736Z,15.93
2023-04-20T21:24:37.776Z,15.55
2023-04-20T21:29:42.045Z,16.60
2023-04-20T21:34:46.382Z,19.17
2023-04-20T21:39:52.640Z,14.45
2023-04-20T21:44:57.030Z,15.88
2023-04-20T21:50:01.619Z,16.90
2023-04-20T21:55:08.135Z,18.48
2023-04-20T22:00:14.128Z,16.83
2023-04-20T22:05:22.812Z,15.35
2023-04-20T22:10:28.898Z,15.60
2023-04-20T22:15:33.479Z,22.77
2023-04-20T22:20:38.222Z,16.05
2023-04-20T22:25:44.566Z,14.52
2023-04-20T22:30:49.146Z,13.32
2023-04-20T22:35:53.872Z,15.10
2023-04-20T22:41:00.587Z,17.40
2023-04-20T22:46:04.956Z,13.35
2023-04-20T22:51:09.453Z,15.23
2023-04-20T22:56:15.426Z,15.93
2023-04-20T23:01:19.730Z,13.75
2023-04-20T23:06:23.946Z,14.82
2023-04-20T23:11:30.077Z,12.70
2023-04-20T23:16:34.586Z,13.63
2023-04-20T23:21:39.105Z,13.18
2023-04-20T23:26:44.721Z,13.07
2023-04-20T23:31:49.137Z,12.63
2023-04-20T23:36:54.460Z,13.32
2023-04-20T23:42:00.316Z,14.30
2023-04-20T23:47:04.529Z,11.63
2023-04-20T23:52:08.681Z,11.57
2023-04-20T23:57:14.372Z,12.98
